Aeroporto :
LOGIN :

Iscrizione | Disclaimer

   EN    FR    IT 

 










Sommario :    VFR   VFR Marginale   IFR   IFR Intensivo   IFR Molto Intensivo
Visibilità : 
Base nubi : 
>= 8 km
>= 3000ft
5 / 8 km
1000 / 3000 ft
1500m / 5 km
500 / 1000 ft
800 / 1500m
200 / 500 ft
< 800m
< 200 ft
Simboli :   Temporali  Nebbia  Neve Forte  Precipitazioni Forti  Vento > 20 kt
SIGMETs :   Varie  Temporali  Ghiacco  Turbolenza  Onda orograficha  Ceneri Vulcaniche






- Altitudine del aeroporto : 325 ft
- Codice IATA : POX


LFPT - Pontoise

ULTIMO METAR :
  • 160700Z AUTO 16007KT 140V210 9000 0800 R05/1000D BCFG FEW003 OVC060 08/07 Q1004

METARs OBSOLETI :
  • 160630Z AUTO 15005KT 9999 SCT011 BKN066 OVC082 08/07 Q1004
  • 160600Z AUTO 19004KT 9999 SCT011 SCT043 BKN056 08/07 Q1004
  • 160530Z AUTO 19005KT 9999 ///TCU 08/07 Q1004
  • 160500Z AUTO 17004KT 9999 FEW010/// SCT056/// BKN068/// ///TCU 08/06 Q1004
  • 160430Z AUTO 18003KT 9999 -RA FEW011 SCT056 BKN072 08/06 Q1004

TAF N/A
ATIS : +33 1 30 30 52 08



MetMap, La meteo Aeronautica in un colpo d'occhio ! - Copyright ORBIFLY Dicembre 2007 - Disclaimer

ORBIFLY MET'MAP TEAM :

Programmazione e sviluppo : Alexandra Zaïnal
Concezione : Baudouin d'Aumeries
Aiuto per la programmazione : Marc-Olivier Méhu
Supporto tecnico e logistico : Manuel Goepfert
Aiuto per la traduzione : Arnaldo La Scala

Contatto : metmap@orbifly.com




FONTI E CREDITI :

   NOAA